sensor_id;sensor_type;location;lat;lon;timestamp;P1;durP1;ratioP1;P2;durP2;ratioP2
8365;SDS011;4220;42.502;24.188;2022-11-15T00:02:07;27.43;;;18.33;;
8365;SDS011;4220;42.502;24.188;2022-11-15T00:04:35;42.00;;;25.90;;
8365;SDS011;4220;42.502;24.188;2022-11-15T00:07:02;27.53;;;19.10;;
8365;SDS011;4220;42.502;24.188;2022-11-15T00:09:29;19.50;;;14.10;;
8365;SDS011;4220;42.502;24.188;2022-11-15T00:11:56;22.93;;;15.30;;
8365;SDS011;4220;42.502;24.188;2022-11-15T00:14:23;21.50;;;14.70;;
8365;SDS011;4220;42.502;24.188;2022-11-15T00:16:49;23.33;;;14.67;;
8365;SDS011;4220;42.502;24.188;2022-11-15T00:19:16;22.97;;;15.80;;
8365;SDS011;4220;42.502;24.188;2022-11-15T00:21:44;24.97;;;17.30;;
8365;SDS011;4220;42.502;24.188;2022-11-15T00:24:11;28.37;;;17.93;;
8365;SDS011;4220;42.502;24.188;2022-11-15T00:26:38;29.40;;;19.43;;
8365;SDS011;4220;42.502;24.188;2022-11-15T00:29:05;27.73;;;18.73;;
8365;SDS011;4220;42.502;24.188;2022-11-15T00:31:32;24.40;;;19.17;;
8365;SDS011;4220;42.502;24.188;2022-11-15T00:33:59;26.70;;;18.50;;
8365;SDS011;4220;42.502;24.188;2022-11-15T00:36:25;25.97;;;17.13;;
8365;SDS011;4220;42.502;24.188;2022-11-15T00:38:54;19.80;;;14.77;;
8365;SDS011;4220;42.502;24.188;2022-11-15T00:41:20;20.00;;;13.87;;
8365;SDS011;4220;42.502;24.188;2022-11-15T00:43:47;21.60;;;13.90;;
8365;SDS011;4220;42.502;24.188;2022-11-15T00:46:14;20.50;;;14.10;;
8365;SDS011;4220;42.502;24.188;2022-11-15T00:48:41;22.43;;;14.23;;
8365;SDS011;4220;42.502;24.188;2022-11-15T00:51:08;17.97;;;13.10;;
8365;SDS011;4220;42.502;24.188;2022-11-15T00:53:35;22.03;;;15.43;;
8365;SDS011;4220;42.502;24.188;2022-11-15T00:56:03;20.00;;;13.30;;
8365;SDS011;4220;42.502;24.188;2022-11-15T00:58:30;21.23;;;13.63;;
8365;SDS011;4220;42.502;24.188;2022-11-15T01:01:04;20.90;;;13.97;;
8365;SDS011;4220;42.502;24.188;2022-11-15T01:03:32;18.17;;;13.57;;
8365;SDS011;4220;42.502;24.188;2022-11-15T01:05:59;19.83;;;13.77;;
8365;SDS011;4220;42.502;24.188;2022-11-15T01:08:26;20.60;;;14.00;;
8365;SDS011;4220;42.502;24.188;2022-11-15T01:10:52;18.50;;;14.27;;
8365;SDS011;4220;42.502;24.188;2022-11-15T01:13:21;20.10;;;12.87;;
8365;SDS011;4220;42.502;24.188;2022-11-15T01:15:48;19.40;;;14.07;;
8365;SDS011;4220;42.502;24.188;2022-11-15T01:18:14;18.07;;;12.77;;
8365;SDS011;4220;42.502;24.188;2022-11-15T01:20:41;20.17;;;14.17;;
8365;SDS011;4220;42.502;24.188;2022-11-15T01:23:08;20.20;;;15.07;;
8365;SDS011;4220;42.502;24.188;2022-11-15T01:25:35;21.67;;;15.80;;
8365;SDS011;4220;42.502;24.188;2022-11-15T01:28:02;22.10;;;16.13;;
8365;SDS011;4220;42.502;24.188;2022-11-15T01:30:30;28.17;;;18.90;;
8365;SDS011;4220;42.502;24.188;2022-11-15T01:32:57;31.77;;;20.13;;
8365;SDS011;4220;42.502;24.188;2022-11-15T01:35:24;41.23;;;27.17;;
8365;SDS011;4220;42.502;24.188;2022-11-15T01:37:51;51.40;;;35.60;;
8365;SDS011;4220;42.502;24.188;2022-11-15T01:40:17;51.87;;;34.90;;
8365;SDS011;4220;42.502;24.188;2022-11-15T01:42:44;36.13;;;22.03;;
8365;SDS011;4220;42.502;24.188;2022-11-15T01:45:12;24.30;;;17.33;;
8365;SDS011;4220;42.502;24.188;2022-11-15T01:47:42;20.83;;;13.77;;
8365;SDS011;4220;42.502;24.188;2022-11-15T01:50:15;18.53;;;12.00;;
8365;SDS011;4220;42.502;24.188;2022-11-15T01:52:46;18.00;;;11.60;;
8365;SDS011;4220;42.502;24.188;2022-11-15T01:55:13;21.70;;;12.80;;
8365;SDS011;4220;42.502;24.188;2022-11-15T01:57:45;17.50;;;12.50;;
8365;SDS011;4220;42.502;24.188;2022-11-15T02:00:15;15.67;;;11.37;;
8365;SDS011;4220;42.502;24.188;2022-11-15T02:02:43;17.17;;;11.53;;
8365;SDS011;4220;42.502;24.188;2022-11-15T02:05:10;15.07;;;11.77;;
8365;SDS011;4220;42.502;24.188;2022-11-15T02:07:37;15.77;;;12.20;;
8365;SDS011;4220;42.502;24.188;2022-11-15T02:10:07;16.67;;;13.13;;
8365;SDS011;4220;42.502;24.188;2022-11-15T02:12:35;19.37;;;13.87;;
8365;SDS011;4220;42.502;24.188;2022-11-15T02:15:03;20.53;;;14.00;;
8365;SDS011;4220;42.502;24.188;2022-11-15T02:20:31;21.67;;;14.23;;
8365;SDS011;4220;42.502;24.188;2022-11-15T02:23:15;20.77;;;14.10;;
8365;SDS011;4220;42.502;24.188;2022-11-15T02:26:19;21.30;;;15.37;;
8365;SDS011;4220;42.502;24.188;2022-11-15T02:29:01;25.57;;;15.93;;
8365;SDS011;4220;42.502;24.188;2022-11-15T02:31:36;24.97;;;17.00;;
8365;SDS011;4220;42.502;24.188;2022-11-15T02:34:14;26.53;;;18.50;;
8365;SDS011;4220;42.502;24.188;2022-11-15T02:36:48;25.80;;;17.47;;
8365;SDS011;4220;42.502;24.188;2022-11-15T02:39:25;20.67;;;15.17;;
8365;SDS011;4220;42.502;24.188;2022-11-15T02:42:00;22.67;;;14.83;;
8365;SDS011;4220;42.502;24.188;2022-11-15T02:44:50;16.80;;;13.80;;
8365;SDS011;4220;42.502;24.188;2022-11-15T02:47:19;21.90;;;14.17;;
8365;SDS011;4220;42.502;24.188;2022-11-15T02:49:50;18.13;;;13.27;;
8365;SDS011;4220;42.502;24.188;2022-11-15T02:52:19;17.70;;;13.27;;
8365;SDS011;4220;42.502;24.188;2022-11-15T02:54:53;18.10;;;12.50;;
8365;SDS011;4220;42.502;24.188;2022-11-15T02:57:23;15.37;;;12.20;;
8365;SDS011;4220;42.502;24.188;2022-11-15T03:00:04;20.60;;;11.53;;
8365;SDS011;4220;42.502;24.188;2022-11-15T03:02:41;17.27;;;12.67;;
8365;SDS011;4220;42.502;24.188;2022-11-15T03:05:25;19.43;;;12.83;;
8365;SDS011;4220;42.502;24.188;2022-11-15T03:08:02;18.60;;;13.20;;
8365;SDS011;4220;42.502;24.188;2022-11-15T03:10:36;20.13;;;13.80;;
8365;SDS011;4220;42.502;24.188;2022-11-15T03:13:16;19.20;;;14.53;;
8365;SDS011;4220;42.502;24.188;2022-11-15T03:15:51;21.47;;;15.23;;
8365;SDS011;4220;42.502;24.188;2022-11-15T03:18:30;21.97;;;15.73;;
8365;SDS011;4220;42.502;24.188;2022-11-15T03:20:59;23.97;;;16.43;;
8365;SDS011;4220;42.502;24.188;2022-11-15T03:23:29;25.97;;;17.37;;
8365;SDS011;4220;42.502;24.188;2022-11-15T03:25:58;23.40;;;16.03;;
8365;SDS011;4220;42.502;24.188;2022-11-15T03:28:29;25.10;;;16.77;;
8365;SDS011;4220;42.502;24.188;2022-11-15T03:30:59;22.13;;;16.83;;
8365;SDS011;4220;42.502;24.188;2022-11-15T03:33:51;22.27;;;16.33;;
8365;SDS011;4220;42.502;24.188;2022-11-15T03:36:21;21.90;;;15.87;;
8365;SDS011;4220;42.502;24.188;2022-11-15T03:38:49;22.47;;;15.40;;
8365;SDS011;4220;42.502;24.188;2022-11-15T03:41:21;22.47;;;15.47;;
8365;SDS011;4220;42.502;24.188;2022-11-15T03:43:53;20.57;;;15.00;;
8365;SDS011;4220;42.502;24.188;2022-11-15T03:46:27;20.63;;;14.67;;
8365;SDS011;4220;42.502;24.188;2022-11-15T03:49:00;21.67;;;15.57;;
8365;SDS011;4220;42.502;24.188;2022-11-15T03:51:32;21.70;;;16.93;;
8365;SDS011;4220;42.502;24.188;2022-11-15T03:53:59;22.97;;;16.33;;
8365;SDS011;4220;42.502;24.188;2022-11-15T03:56:29;21.33;;;15.43;;
8365;SDS011;4220;42.502;24.188;2022-11-15T03:58:56;24.90;;;16.80;;
8365;SDS011;4220;42.502;24.188;2022-11-15T04:01:23;26.93;;;17.80;;
8365;SDS011;4220;42.502;24.188;2022-11-15T04:03:50;26.73;;;18.27;;
8365;SDS011;4220;42.502;24.188;2022-11-15T04:06:18;29.23;;;20.33;;
8365;SDS011;4220;42.502;24.188;2022-11-15T04:08:45;28.73;;;20.57;;
8365;SDS011;4220;42.502;24.188;2022-11-15T04:11:12;33.00;;;21.93;;
8365;SDS011;4220;42.502;24.188;2022-11-15T04:13:38;26.73;;;20.97;;
8365;SDS011;4220;42.502;24.188;2022-11-15T04:16:05;29.60;;;22.07;;
8365;SDS011;4220;42.502;24.188;2022-11-15T04:18:32;37.77;;;29.67;;
8365;SDS011;4220;42.502;24.188;2022-11-15T04:20:59;37.53;;;26.90;;
8365;SDS011;4220;42.502;24.188;2022-11-15T04:23:44;37.00;;;27.20;;
8365;SDS011;4220;42.502;24.188;2022-11-15T04:26:25;35.03;;;26.57;;
8365;SDS011;4220;42.502;24.188;2022-11-15T04:28:52;40.83;;;28.67;;
8365;SDS011;4220;42.502;24.188;2022-11-15T04:31:36;35.43;;;25.27;;
8365;SDS011;4220;42.502;24.188;2022-11-15T04:34:02;31.37;;;21.57;;
8365;SDS011;4220;42.502;24.188;2022-11-15T04:36:29;29.87;;;21.17;;
8365;SDS011;4220;42.502;24.188;2022-11-15T04:39:14;33.80;;;22.40;;
8365;SDS011;4220;42.502;24.188;2022-11-15T04:41:41;32.67;;;23.77;;
8365;SDS011;4220;42.502;24.188;2022-11-15T04:44:08;35.90;;;25.57;;
8365;SDS011;4220;42.502;24.188;2022-11-15T04:46:35;41.27;;;28.67;;
8365;SDS011;4220;42.502;24.188;2022-11-15T04:49:02;38.67;;;26.20;;
8365;SDS011;4220;42.502;24.188;2022-11-15T04:51:29;37.03;;;27.40;;
8365;SDS011;4220;42.502;24.188;2022-11-15T04:53:56;43.03;;;29.17;;
8365;SDS011;4220;42.502;24.188;2022-11-15T04:56:24;38.37;;;28.10;;
8365;SDS011;4220;42.502;24.188;2022-11-15T04:58:51;36.37;;;29.10;;
8365;SDS011;4220;42.502;24.188;2022-11-15T05:01:18;42.07;;;29.50;;
8365;SDS011;4220;42.502;24.188;2022-11-15T05:03:44;39.30;;;28.53;;
8365;SDS011;4220;42.502;24.188;2022-11-15T05:06:29;40.07;;;25.87;;
8365;SDS011;4220;42.502;24.188;2022-11-15T05:08:56;37.20;;;25.57;;
8365;SDS011;4220;42.502;24.188;2022-11-15T05:11:25;40.07;;;27.37;;
8365;SDS011;4220;42.502;24.188;2022-11-15T05:13:52;38.57;;;28.70;;
8365;SDS011;4220;42.502;24.188;2022-11-15T05:16:19;42.10;;;28.93;;
8365;SDS011;4220;42.502;24.188;2022-11-15T05:18:46;41.90;;;29.13;;
8365;SDS011;4220;42.502;24.188;2022-11-15T05:21:13;51.57;;;31.47;;
8365;SDS011;4220;42.502;24.188;2022-11-15T05:23:41;49.13;;;31.03;;
8365;SDS011;4220;42.502;24.188;2022-11-15T05:26:08;42.87;;;29.33;;
8365;SDS011;4220;42.502;24.188;2022-11-15T05:28:37;45.70;;;31.57;;
8365;SDS011;4220;42.502;24.188;2022-11-15T05:31:05;50.10;;;31.70;;
8365;SDS011;4220;42.502;24.188;2022-11-15T05:33:33;61.83;;;38.70;;
8365;SDS011;4220;42.502;24.188;2022-11-15T05:36:01;64.87;;;40.97;;
8365;SDS011;4220;42.502;24.188;2022-11-15T05:38:31;68.23;;;46.77;;
8365;SDS011;4220;42.502;24.188;2022-11-15T05:40:59;61.27;;;42.47;;
8365;SDS011;4220;42.502;24.188;2022-11-15T05:43:26;170.83;;;113.20;;
8365;SDS011;4220;42.502;24.188;2022-11-15T05:45:57;366.83;;;237.60;;
8365;SDS011;4220;42.502;24.188;2022-11-15T05:48:25;169.50;;;109.17;;
8365;SDS011;4220;42.502;24.188;2022-11-15T05:50:53;141.80;;;91.53;;
8365;SDS011;4220;42.502;24.188;2022-11-15T05:53:20;303.30;;;194.03;;
8365;SDS011;4220;42.502;24.188;2022-11-15T05:55:49;291.57;;;186.23;;
8365;SDS011;4220;42.502;24.188;2022-11-15T05:58:16;178.97;;;122.60;;
8365;SDS011;4220;42.502;24.188;2022-11-15T06:00:44;222.43;;;149.33;;
8365;SDS011;4220;42.502;24.188;2022-11-15T06:03:12;189.53;;;121.93;;
8365;SDS011;4220;42.502;24.188;2022-11-15T06:05:39;176.93;;;112.57;;
8365;SDS011;4220;42.502;24.188;2022-11-15T06:08:06;154.50;;;98.20;;
8365;SDS011;4220;42.502;24.188;2022-11-15T06:10:33;279.17;;;162.70;;
8365;SDS011;4220;42.502;24.188;2022-11-15T06:13:00;204.17;;;122.50;;
8365;SDS011;4220;42.502;24.188;2022-11-15T06:15:29;223.67;;;136.23;;
8365;SDS011;4220;42.502;24.188;2022-11-15T06:17:56;151.60;;;95.03;;
8365;SDS011;4220;42.502;24.188;2022-11-15T06:20:25;110.33;;;67.00;;
8365;SDS011;4220;42.502;24.188;2022-11-15T06:22:55;99.10;;;59.83;;
8365;SDS011;4220;42.502;24.188;2022-11-15T06:25:23;104.77;;;65.47;;
8365;SDS011;4220;42.502;24.188;2022-11-15T06:27:50;115.27;;;73.27;;
8365;SDS011;4220;42.502;24.188;2022-11-15T06:30:18;181.47;;;109.67;;
8365;SDS011;4220;42.502;24.188;2022-11-15T06:32:45;87.60;;;58.97;;
8365;SDS011;4220;42.502;24.188;2022-11-15T06:35:12;147.70;;;100.87;;
8365;SDS011;4220;42.502;24.188;2022-11-15T06:37:41;364.90;;;246.53;;
8365;SDS011;4220;42.502;24.188;2022-11-15T06:40:09;168.67;;;110.00;;
8365;SDS011;4220;42.502;24.188;2022-11-15T06:42:36;58.33;;;43.20;;
8365;SDS011;4220;42.502;24.188;2022-11-15T06:45:03;46.60;;;37.13;;
8365;SDS011;4220;42.502;24.188;2022-11-15T06:47:31;49.37;;;38.97;;
8365;SDS011;4220;42.502;24.188;2022-11-15T06:49:58;46.23;;;36.10;;
8365;SDS011;4220;42.502;24.188;2022-11-15T06:52:25;52.57;;;36.47;;
8365;SDS011;4220;42.502;24.188;2022-11-15T06:54:53;54.03;;;38.17;;
8365;SDS011;4220;42.502;24.188;2022-11-15T06:57:20;350.97;;;218.43;;
8365;SDS011;4220;42.502;24.188;2022-11-15T06:59:46;79.83;;;50.63;;
8365;SDS011;4220;42.502;24.188;2022-11-15T07:02:13;40.40;;;29.07;;
8365;SDS011;4220;42.502;24.188;2022-11-15T07:04:40;40.57;;;27.47;;
8365;SDS011;4220;42.502;24.188;2022-11-15T07:07:07;40.23;;;26.77;;
8365;SDS011;4220;42.502;24.188;2022-11-15T07:09:34;38.00;;;27.27;;
8365;SDS011;4220;42.502;24.188;2022-11-15T07:12:02;32.00;;;24.90;;
8365;SDS011;4220;42.502;24.188;2022-11-15T07:14:29;35.27;;;24.43;;
8365;SDS011;4220;42.502;24.188;2022-11-15T07:16:56;33.83;;;22.87;;
8365;SDS011;4220;42.502;24.188;2022-11-15T07:19:23;35.40;;;23.93;;
8365;SDS011;4220;42.502;24.188;2022-11-15T07:21:49;31.57;;;22.53;;
8365;SDS011;4220;42.502;24.188;2022-11-15T07:24:16;33.10;;;22.23;;
8365;SDS011;4220;42.502;24.188;2022-11-15T07:26:43;35.43;;;26.63;;
8365;SDS011;4220;42.502;24.188;2022-11-15T07:29:11;52.40;;;35.33;;
8365;SDS011;4220;42.502;24.188;2022-11-15T07:31:38;54.17;;;40.17;;
8365;SDS011;4220;42.502;24.188;2022-11-15T07:34:05;62.50;;;46.50;;
8365;SDS011;4220;42.502;24.188;2022-11-15T07:36:32;54.97;;;42.97;;
8365;SDS011;4220;42.502;24.188;2022-11-15T07:38:58;46.70;;;36.13;;
8365;SDS011;4220;42.502;24.188;2022-11-15T07:41:25;47.27;;;32.80;;
8365;SDS011;4220;42.502;24.188;2022-11-15T07:43:52;40.70;;;28.43;;
8365;SDS011;4220;42.502;24.188;2022-11-15T07:46:20;37.83;;;26.60;;
8365;SDS011;4220;42.502;24.188;2022-11-15T07:48:47;36.47;;;25.93;;
8365;SDS011;4220;42.502;24.188;2022-11-15T07:51:14;37.97;;;28.03;;
8365;SDS011;4220;42.502;24.188;2022-11-15T07:53:42;37.83;;;26.53;;
8365;SDS011;4220;42.502;24.188;2022-11-15T07:56:09;33.30;;;25.23;;
8365;SDS011;4220;42.502;24.188;2022-11-15T07:58:36;35.27;;;26.27;;
8365;SDS011;4220;42.502;24.188;2022-11-15T08:01:03;32.67;;;23.03;;
8365;SDS011;4220;42.502;24.188;2022-11-15T08:03:32;32.37;;;20.37;;
8365;SDS011;4220;42.502;24.188;2022-11-15T08:05:59;30.10;;;20.57;;
8365;SDS011;4220;42.502;24.188;2022-11-15T08:08:26;26.43;;;18.83;;
8365;SDS011;4220;42.502;24.188;2022-11-15T08:10:53;31.10;;;21.87;;
8365;SDS011;4220;42.502;24.188;2022-11-15T08:13:20;27.90;;;20.00;;
8365;SDS011;4220;42.502;24.188;2022-11-15T08:15:47;28.60;;;20.97;;
8365;SDS011;4220;42.502;24.188;2022-11-15T08:18:14;25.87;;;18.00;;
8365;SDS011;4220;42.502;24.188;2022-11-15T08:20:43;27.50;;;18.63;;
8365;SDS011;4220;42.502;24.188;2022-11-15T08:23:11;28.93;;;19.97;;
8365;SDS011;4220;42.502;24.188;2022-11-15T08:25:38;26.27;;;20.57;;
8365;SDS011;4220;42.502;24.188;2022-11-15T08:28:06;31.33;;;19.70;;
8365;SDS011;4220;42.502;24.188;2022-11-15T08:30:34;27.60;;;19.10;;
8365;SDS011;4220;42.502;24.188;2022-11-15T08:33:03;29.27;;;21.00;;
8365;SDS011;4220;42.502;24.188;2022-11-15T08:35:30;31.60;;;19.93;;
8365;SDS011;4220;42.502;24.188;2022-11-15T08:37:58;31.90;;;22.67;;
8365;SDS011;4220;42.502;24.188;2022-11-15T08:40:26;32.67;;;21.87;;
8365;SDS011;4220;42.502;24.188;2022-11-15T08:42:53;25.83;;;19.47;;
8365;SDS011;4220;42.502;24.188;2022-11-15T08:45:20;27.33;;;19.53;;
8365;SDS011;4220;42.502;24.188;2022-11-15T08:47:46;23.60;;;16.23;;
8365;SDS011;4220;42.502;24.188;2022-11-15T08:50:13;25.60;;;18.33;;
8365;SDS011;4220;42.502;24.188;2022-11-15T08:52:41;24.60;;;18.13;;
8365;SDS011;4220;42.502;24.188;2022-11-15T08:55:09;20.97;;;16.40;;
8365;SDS011;4220;42.502;24.188;2022-11-15T08:57:36;23.97;;;17.87;;
8365;SDS011;4220;42.502;24.188;2022-11-15T09:00:03;27.93;;;19.93;;
8365;SDS011;4220;42.502;24.188;2022-11-15T09:02:30;29.60;;;21.37;;
8365;SDS011;4220;42.502;24.188;2022-11-15T09:04:57;32.07;;;23.17;;
8365;SDS011;4220;42.502;24.188;2022-11-15T09:07:24;28.77;;;21.87;;
8365;SDS011;4220;42.502;24.188;2022-11-15T09:09:51;30.53;;;22.47;;
8365;SDS011;4220;42.502;24.188;2022-11-15T09:12:19;32.87;;;22.63;;
8365;SDS011;4220;42.502;24.188;2022-11-15T09:14:46;34.80;;;22.80;;
8365;SDS011;4220;42.502;24.188;2022-11-15T09:17:13;34.30;;;24.03;;
8365;SDS011;4220;42.502;24.188;2022-11-15T09:19:39;31.77;;;22.43;;
8365;SDS011;4220;42.502;24.188;2022-11-15T09:22:06;31.63;;;23.83;;
8365;SDS011;4220;42.502;24.188;2022-11-15T09:24:34;33.90;;;25.57;;
8365;SDS011;4220;42.502;24.188;2022-11-15T09:27:01;37.00;;;27.00;;
8365;SDS011;4220;42.502;24.188;2022-11-15T09:29:29;64.03;;;39.70;;
8365;SDS011;4220;42.502;24.188;2022-11-15T09:31:56;33.43;;;22.37;;
8365;SDS011;4220;42.502;24.188;2022-11-15T09:34:22;29.53;;;21.47;;
8365;SDS011;4220;42.502;24.188;2022-11-15T09:36:49;28.43;;;19.87;;
8365;SDS011;4220;42.502;24.188;2022-11-15T09:39:16;26.57;;;19.33;;
8365;SDS011;4220;42.502;24.188;2022-11-15T09:44:42;29.63;;;21.43;;
8365;SDS011;4220;42.502;24.188;2022-11-15T09:47:25;31.53;;;20.60;;
8365;SDS011;4220;42.502;24.188;2022-11-15T09:50:14;28.30;;;20.00;;
8365;SDS011;4220;42.502;24.188;2022-11-15T09:52:44;35.17;;;22.57;;
8365;SDS011;4220;42.502;24.188;2022-11-15T09:55:12;29.23;;;21.33;;
8365;SDS011;4220;42.502;24.188;2022-11-15T09:57:56;27.67;;;20.90;;
8365;SDS011;4220;42.502;24.188;2022-11-15T10:00:32;26.07;;;19.07;;
8365;SDS011;4220;42.502;24.188;2022-11-15T10:03:07;25.73;;;19.60;;
8365;SDS011;4220;42.502;24.188;2022-11-15T10:05:38;28.37;;;19.47;;
8365;SDS011;4220;42.502;24.188;2022-11-15T10:08:11;28.77;;;21.60;;
8365;SDS011;4220;42.502;24.188;2022-11-15T10:10:58;26.70;;;20.03;;
8365;SDS011;4220;42.502;24.188;2022-11-15T10:13:27;26.13;;;19.83;;
8365;SDS011;4220;42.502;24.188;2022-11-15T10:16:00;25.53;;;19.57;;
8365;SDS011;4220;42.502;24.188;2022-11-15T10:18:40;31.70;;;20.43;;
8365;SDS011;4220;42.502;24.188;2022-11-15T10:21:15;26.30;;;20.00;;
8365;SDS011;4220;42.502;24.188;2022-11-15T10:23:46;26.57;;;21.07;;
8365;SDS011;4220;42.502;24.188;2022-11-15T10:26:14;34.47;;;22.33;;
8365;SDS011;4220;42.502;24.188;2022-11-15T10:28:42;28.50;;;21.17;;
8365;SDS011;4220;42.502;24.188;2022-11-15T10:31:22;30.13;;;21.17;;
8365;SDS011;4220;42.502;24.188;2022-11-15T10:33:50;26.17;;;19.47;;
8365;SDS011;4220;42.502;24.188;2022-11-15T10:36:23;29.50;;;20.87;;
8365;SDS011;4220;42.502;24.188;2022-11-15T10:38:51;31.13;;;21.57;;
8365;SDS011;4220;42.502;24.188;2022-11-15T10:41:21;35.13;;;24.20;;
8365;SDS011;4220;42.502;24.188;2022-11-15T10:44:01;30.63;;;22.57;;
8365;SDS011;4220;42.502;24.188;2022-11-15T10:46:39;32.87;;;22.57;;
8365;SDS011;4220;42.502;24.188;2022-11-15T10:49:12;31.30;;;22.67;;
8365;SDS011;4220;42.502;24.188;2022-11-15T10:51:41;28.03;;;20.33;;
8365;SDS011;4220;42.502;24.188;2022-11-15T10:54:11;31.67;;;21.63;;
8365;SDS011;4220;42.502;24.188;2022-11-15T10:56:41;27.23;;;21.33;;
8365;SDS011;4220;42.502;24.188;2022-11-15T10:59:14;52.20;;;40.07;;
8365;SDS011;4220;42.502;24.188;2022-11-15T11:01:47;26.87;;;21.37;;
8365;SDS011;4220;42.502;24.188;2022-11-15T11:04:14;31.43;;;23.37;;
8365;SDS011;4220;42.502;24.188;2022-11-15T11:06:49;33.87;;;22.77;;
8365;SDS011;4220;42.502;24.188;2022-11-15T11:09:28;30.47;;;22.73;;
8365;SDS011;4220;42.502;24.188;2022-11-15T11:11:58;32.10;;;22.97;;
8365;SDS011;4220;42.502;24.188;2022-11-15T11:14:26;31.77;;;22.83;;
8365;SDS011;4220;42.502;24.188;2022-11-15T11:16:59;35.47;;;25.57;;
8365;SDS011;4220;42.502;24.188;2022-11-15T11:19:35;32.07;;;24.83;;
8365;SDS011;4220;42.502;24.188;2022-11-15T11:22:13;31.30;;;23.57;;
8365;SDS011;4220;42.502;24.188;2022-11-15T11:24:47;35.20;;;25.03;;
8365;SDS011;4220;42.502;24.188;2022-11-15T11:27:26;27.23;;;21.95;;
8365;SDS011;4220;42.502;24.188;2022-11-15T11:30:04;28.00;;;21.23;;
8365;SDS011;4220;42.502;24.188;2022-11-15T11:35:31;21.23;;;16.25;;
8365;SDS011;4220;42.502;24.188;2022-11-15T11:38:10;21.65;;;17.38;;
8365;SDS011;4220;42.502;24.188;2022-11-15T11:40:52;22.88;;;18.00;;
8365;SDS011;4220;42.502;24.188;2022-11-15T11:43:30;23.83;;;19.42;;
8365;SDS011;4220;42.502;24.188;2022-11-15T11:46:08;23.67;;;19.10;;
8365;SDS011;4220;42.502;24.188;2022-11-15T11:48:46;26.43;;;20.17;;
8365;SDS011;4220;42.502;24.188;2022-11-15T11:51:18;27.48;;;19.92;;
8365;SDS011;4220;42.502;24.188;2022-11-15T11:53:51;25.02;;;19.85;;
8365;SDS011;4220;42.502;24.188;2022-11-15T11:56:25;25.58;;;18.90;;
8365;SDS011;4220;42.502;24.188;2022-11-15T11:58:55;22.35;;;17.45;;
8365;SDS011;4220;42.502;24.188;2022-11-15T12:01:28;19.63;;;16.13;;
8365;SDS011;4220;42.502;24.188;2022-11-15T12:04:04;21.13;;;16.15;;
8365;SDS011;4220;42.502;24.188;2022-11-15T12:06:39;20.58;;;15.90;;
8365;SDS011;4220;42.502;24.188;2022-11-15T12:09:12;22.50;;;14.88;;
8365;SDS011;4220;42.502;24.188;2022-11-15T12:11:51;20.48;;;14.90;;
8365;SDS011;4220;42.502;24.188;2022-11-15T12:14:24;21.60;;;16.05;;
8365;SDS011;4220;42.502;24.188;2022-11-15T12:16:58;20.10;;;15.30;;
8365;SDS011;4220;42.502;24.188;2022-11-15T12:19:26;30.02;;;26.92;;
8365;SDS011;4220;42.502;24.188;2022-11-15T12:21:56;21.08;;;16.60;;
8365;SDS011;4220;42.502;24.188;2022-11-15T12:24:29;22.33;;;16.15;;
8365;SDS011;4220;42.502;24.188;2022-11-15T12:27:04;19.15;;;15.60;;
8365;SDS011;4220;42.502;24.188;2022-11-15T12:29:36;22.98;;;17.45;;
8365;SDS011;4220;42.502;24.188;2022-11-15T12:32:10;23.50;;;16.45;;
8365;SDS011;4220;42.502;24.188;2022-11-15T12:34:59;19.48;;;15.60;;
8365;SDS011;4220;42.502;24.188;2022-11-15T12:37:46;19.75;;;15.88;;
8365;SDS011;4220;42.502;24.188;2022-11-15T12:40:19;19.30;;;14.82;;
8365;SDS011;4220;42.502;24.188;2022-11-15T12:42:59;16.38;;;13.85;;
8365;SDS011;4220;42.502;24.188;2022-11-15T12:45:47;17.98;;;14.05;;
8365;SDS011;4220;42.502;24.188;2022-11-15T12:52:03;18.70;;;14.88;;
8365;SDS011;4220;42.502;24.188;2022-11-15T12:57:47;19.08;;;14.95;;
8365;SDS011;4220;42.502;24.188;2022-11-15T13:08:54;18.02;;;14.32;;
8365;SDS011;4220;42.502;24.188;2022-11-15T13:14:37;18.73;;;15.77;;
8365;SDS011;4220;42.502;24.188;2022-11-15T13:17:26;19.35;;;15.70;;
8365;SDS011;4220;42.502;24.188;2022-11-15T13:20:00;19.05;;;15.30;;
8365;SDS011;4220;42.502;24.188;2022-11-15T13:22:42;20.55;;;15.13;;
8365;SDS011;4220;42.502;24.188;2022-11-15T13:25:21;23.58;;;16.38;;
8365;SDS011;4220;42.502;24.188;2022-11-15T13:28:22;20.23;;;15.68;;
8365;SDS011;4220;42.502;24.188;2022-11-15T13:30:56;21.65;;;15.45;;
8365;SDS011;4220;42.502;24.188;2022-11-15T13:33:25;23.83;;;16.85;;
8365;SDS011;4220;42.502;24.188;2022-11-15T13:35:57;19.83;;;15.73;;
8365;SDS011;4220;42.502;24.188;2022-11-15T13:38:27;18.90;;;16.48;;
8365;SDS011;4220;42.502;24.188;2022-11-15T13:40:58;21.73;;;17.15;;
8365;SDS011;4220;42.502;24.188;2022-11-15T13:43:36;18.88;;;14.68;;
8365;SDS011;4220;42.502;24.188;2022-11-15T13:46:04;19.05;;;15.77;;
8365;SDS011;4220;42.502;24.188;2022-11-15T13:48:32;20.83;;;16.95;;
8365;SDS011;4220;42.502;24.188;2022-11-15T13:50:59;19.58;;;14.85;;
8365;SDS011;4220;42.502;24.188;2022-11-15T13:53:29;19.13;;;15.13;;
8365;SDS011;4220;42.502;24.188;2022-11-15T13:55:59;20.73;;;16.20;;
8365;SDS011;4220;42.502;24.188;2022-11-15T13:58:28;27.65;;;16.65;;
8365;SDS011;4220;42.502;24.188;2022-11-15T14:00:59;24.50;;;16.75;;
8365;SDS011;4220;42.502;24.188;2022-11-15T14:03:28;17.15;;;14.85;;
8365;SDS011;4220;42.502;24.188;2022-11-15T14:06:04;23.27;;;16.45;;
8365;SDS011;4220;42.502;24.188;2022-11-15T14:08:33;21.25;;;17.55;;
8365;SDS011;4220;42.502;24.188;2022-11-15T14:11:10;18.98;;;16.75;;
8365;SDS011;4220;42.502;24.188;2022-11-15T14:13:41;26.75;;;18.30;;
8365;SDS011;4220;42.502;24.188;2022-11-15T14:16:12;20.10;;;16.25;;
8365;SDS011;4220;42.502;24.188;2022-11-15T14:18:42;24.27;;;17.00;;
8365;SDS011;4220;42.502;24.188;2022-11-15T14:21:11;21.55;;;17.67;;
8365;SDS011;4220;42.502;24.188;2022-11-15T14:23:38;39.63;;;29.90;;
8365;SDS011;4220;42.502;24.188;2022-11-15T14:26:11;37.38;;;30.63;;
8365;SDS011;4220;42.502;24.188;2022-11-15T14:28:53;30.83;;;22.75;;
8365;SDS011;4220;42.502;24.188;2022-11-15T14:31:20;31.20;;;24.05;;
8365;SDS011;4220;42.502;24.188;2022-11-15T14:33:47;39.83;;;30.20;;
8365;SDS011;4220;42.502;24.188;2022-11-15T14:36:15;47.47;;;38.45;;
8365;SDS011;4220;42.502;24.188;2022-11-15T14:38:44;44.13;;;31.95;;
8365;SDS011;4220;42.502;24.188;2022-11-15T14:41:17;39.65;;;29.67;;
8365;SDS011;4220;42.502;24.188;2022-11-15T14:43:45;162.32;;;107.10;;
8365;SDS011;4220;42.502;24.188;2022-11-15T14:46:12;89.97;;;64.88;;
8365;SDS011;4220;42.502;24.188;2022-11-15T14:48:38;43.10;;;32.22;;
8365;SDS011;4220;42.502;24.188;2022-11-15T14:51:09;39.90;;;28.50;;
8365;SDS011;4220;42.502;24.188;2022-11-15T14:53:38;45.63;;;34.00;;
8365;SDS011;4220;42.502;24.188;2022-11-15T14:56:06;40.17;;;28.95;;
8365;SDS011;4220;42.502;24.188;2022-11-15T14:58:34;38.65;;;27.17;;
8365;SDS011;4220;42.502;24.188;2022-11-15T15:01:01;37.22;;;27.55;;
8365;SDS011;4220;42.502;24.188;2022-11-15T15:03:29;44.67;;;30.03;;
8365;SDS011;4220;42.502;24.188;2022-11-15T15:05:56;49.23;;;37.83;;
8365;SDS011;4220;42.502;24.188;2022-11-15T15:08:23;53.63;;;36.63;;
8365;SDS011;4220;42.502;24.188;2022-11-15T15:10:50;50.13;;;36.40;;
8365;SDS011;4220;42.502;24.188;2022-11-15T15:13:17;57.90;;;43.43;;
8365;SDS011;4220;42.502;24.188;2022-11-15T15:15:48;57.73;;;43.43;;
8365;SDS011;4220;42.502;24.188;2022-11-15T15:18:16;47.70;;;32.33;;
8365;SDS011;4220;42.502;24.188;2022-11-15T15:20:43;39.33;;;26.30;;